sensor_id;sensor_type;location;lat;lon;timestamp;P1;durP1;ratioP1;P2;durP2;ratioP2
24761;SDS011;12865;51.934;10.330;2024-03-08T00:02:31;29.60;;;23.23;;
24761;SDS011;12865;51.934;10.330;2024-03-08T00:05:16;28.75;;;24.10;;
24761;SDS011;12865;51.934;10.330;2024-03-08T00:08:03;28.70;;;23.58;;
24761;SDS011;12865;51.934;10.330;2024-03-08T00:10:50;30.75;;;25.33;;
24761;SDS011;12865;51.934;10.330;2024-03-08T00:13:36;27.05;;;22.98;;
24761;SDS011;12865;51.934;10.330;2024-03-08T00:16:22;27.80;;;22.50;;
24761;SDS011;12865;51.934;10.330;2024-03-08T00:19:08;28.60;;;23.83;;
24761;SDS011;12865;51.934;10.330;2024-03-08T00:21:54;28.52;;;24.40;;
24761;SDS011;12865;51.934;10.330;2024-03-08T00:24:40;29.05;;;23.95;;
24761;SDS011;12865;51.934;10.330;2024-03-08T00:27:26;30.92;;;24.85;;
24761;SDS011;12865;51.934;10.330;2024-03-08T00:30:12;30.40;;;24.15;;
24761;SDS011;12865;51.934;10.330;2024-03-08T00:33:00;28.20;;;22.92;;
24761;SDS011;12865;51.934;10.330;2024-03-08T00:35:47;32.63;;;24.55;;
24761;SDS011;12865;51.934;10.330;2024-03-08T00:38:33;29.33;;;24.58;;
24761;SDS011;12865;51.934;10.330;2024-03-08T00:41:19;33.97;;;25.88;;
24761;SDS011;12865;51.934;10.330;2024-03-08T00:44:05;27.17;;;21.90;;
24761;SDS011;12865;51.934;10.330;2024-03-08T00:46:50;29.05;;;23.33;;
24761;SDS011;12865;51.934;10.330;2024-03-08T00:49:37;30.45;;;23.80;;
24761;SDS011;12865;51.934;10.330;2024-03-08T00:52:23;28.30;;;23.40;;
24761;SDS011;12865;51.934;10.330;2024-03-08T00:55:09;27.13;;;23.38;;
24761;SDS011;12865;51.934;10.330;2024-03-08T00:57:56;28.80;;;24.33;;
24761;SDS011;12865;51.934;10.330;2024-03-08T01:00:42;31.27;;;24.85;;
24761;SDS011;12865;51.934;10.330;2024-03-08T01:03:28;30.42;;;25.95;;
24761;SDS011;12865;51.934;10.330;2024-03-08T01:06:13;31.77;;;25.75;;
24761;SDS011;12865;51.934;10.330;2024-03-08T01:09:00;33.88;;;25.65;;
24761;SDS011;12865;51.934;10.330;2024-03-08T01:11:45;32.50;;;25.83;;
24761;SDS011;12865;51.934;10.330;2024-03-08T01:14:31;28.83;;;25.17;;
24761;SDS011;12865;51.934;10.330;2024-03-08T01:17:17;35.17;;;26.50;;
24761;SDS011;12865;51.934;10.330;2024-03-08T01:20:03;32.35;;;26.13;;
24761;SDS011;12865;51.934;10.330;2024-03-08T01:22:50;33.78;;;26.42;;
24761;SDS011;12865;51.934;10.330;2024-03-08T01:25:35;34.50;;;27.20;;
24761;SDS011;12865;51.934;10.330;2024-03-08T01:28:21;30.30;;;26.33;;
24761;SDS011;12865;51.934;10.330;2024-03-08T01:31:07;32.10;;;26.88;;
24761;SDS011;12865;51.934;10.330;2024-03-08T01:33:52;33.33;;;27.85;;
24761;SDS011;12865;51.934;10.330;2024-03-08T01:36:38;33.28;;;26.75;;
24761;SDS011;12865;51.934;10.330;2024-03-08T01:39:24;33.00;;;26.08;;
24761;SDS011;12865;51.934;10.330;2024-03-08T01:42:09;34.20;;;24.60;;
24761;SDS011;12865;51.934;10.330;2024-03-08T01:44:57;31.80;;;26.95;;
24761;SDS011;12865;51.934;10.330;2024-03-08T01:47:43;30.40;;;25.63;;
24761;SDS011;12865;51.934;10.330;2024-03-08T01:50:29;30.02;;;25.55;;
24761;SDS011;12865;51.934;10.330;2024-03-08T01:53:15;30.75;;;26.13;;
24761;SDS011;12865;51.934;10.330;2024-03-08T01:56:03;33.30;;;27.15;;
24761;SDS011;12865;51.934;10.330;2024-03-08T01:58:50;32.88;;;26.52;;
24761;SDS011;12865;51.934;10.330;2024-03-08T02:01:36;31.50;;;25.23;;
24761;SDS011;12865;51.934;10.330;2024-03-08T02:04:23;29.92;;;25.30;;
24761;SDS011;12865;51.934;10.330;2024-03-08T02:07:09;28.70;;;24.95;;
24761;SDS011;12865;51.934;10.330;2024-03-08T02:09:55;33.00;;;25.42;;
24761;SDS011;12865;51.934;10.330;2024-03-08T02:12:41;32.33;;;26.27;;
24761;SDS011;12865;51.934;10.330;2024-03-08T02:15:42;33.25;;;25.73;;
24761;SDS011;12865;51.934;10.330;2024-03-08T02:18:44;34.67;;;24.75;;
24761;SDS011;12865;51.934;10.330;2024-03-08T02:21:30;32.05;;;25.17;;
24761;SDS011;12865;51.934;10.330;2024-03-08T02:24:16;32.50;;;25.88;;
24761;SDS011;12865;51.934;10.330;2024-03-08T02:27:02;31.10;;;25.23;;
24761;SDS011;12865;51.934;10.330;2024-03-08T02:29:47;32.25;;;26.73;;
24761;SDS011;12865;51.934;10.330;2024-03-08T02:32:33;31.73;;;26.85;;
24761;SDS011;12865;51.934;10.330;2024-03-08T02:35:19;31.27;;;26.15;;
24761;SDS011;12865;51.934;10.330;2024-03-08T02:38:05;34.17;;;26.77;;
24761;SDS011;12865;51.934;10.330;2024-03-08T02:40:51;32.75;;;27.35;;
24761;SDS011;12865;51.934;10.330;2024-03-08T02:43:38;31.98;;;26.30;;
24761;SDS011;12865;51.934;10.330;2024-03-08T02:46:23;32.60;;;27.20;;
24761;SDS011;12865;51.934;10.330;2024-03-08T02:49:09;34.70;;;28.10;;
24761;SDS011;12865;51.934;10.330;2024-03-08T02:51:55;34.75;;;28.17;;
24761;SDS011;12865;51.934;10.330;2024-03-08T02:54:42;36.35;;;27.48;;
24761;SDS011;12865;51.934;10.330;2024-03-08T02:57:28;35.42;;;27.58;;
24761;SDS011;12865;51.934;10.330;2024-03-08T03:00:14;30.77;;;26.27;;
24761;SDS011;12865;51.934;10.330;2024-03-08T03:03:01;33.10;;;27.95;;
24761;SDS011;12865;51.934;10.330;2024-03-08T03:05:48;33.70;;;26.80;;
24761;SDS011;12865;51.934;10.330;2024-03-08T03:08:35;35.42;;;27.50;;
24761;SDS011;12865;51.934;10.330;2024-03-08T03:11:20;34.85;;;28.30;;
24761;SDS011;12865;51.934;10.330;2024-03-08T03:14:07;34.47;;;28.05;;
24761;SDS011;12865;51.934;10.330;2024-03-08T03:16:53;36.03;;;28.17;;
24761;SDS011;12865;51.934;10.330;2024-03-08T03:19:42;35.47;;;27.92;;
24761;SDS011;12865;51.934;10.330;2024-03-08T03:22:28;36.33;;;28.70;;
24761;SDS011;12865;51.934;10.330;2024-03-08T03:25:15;36.47;;;29.30;;
24761;SDS011;12865;51.934;10.330;2024-03-08T03:28:08;36.95;;;27.75;;
24761;SDS011;12865;51.934;10.330;2024-03-08T03:30:56;37.20;;;29.92;;
24761;SDS011;12865;51.934;10.330;2024-03-08T03:33:44;40.00;;;31.27;;
24761;SDS011;12865;51.934;10.330;2024-03-08T03:36:30;38.30;;;29.77;;
24761;SDS011;12865;51.934;10.330;2024-03-08T03:39:16;37.08;;;30.85;;
24761;SDS011;12865;51.934;10.330;2024-03-08T03:42:01;38.72;;;32.42;;
24761;SDS011;12865;51.934;10.330;2024-03-08T03:44:47;46.15;;;34.47;;
24761;SDS011;12865;51.934;10.330;2024-03-08T03:47:33;40.78;;;33.47;;
24761;SDS011;12865;51.934;10.330;2024-03-08T03:50:19;48.92;;;38.30;;
24761;SDS011;12865;51.934;10.330;2024-03-08T03:53:05;44.50;;;34.70;;
24761;SDS011;12865;51.934;10.330;2024-03-08T03:55:53;40.83;;;33.00;;
24761;SDS011;12865;51.934;10.330;2024-03-08T03:58:39;44.20;;;33.38;;
24761;SDS011;12865;51.934;10.330;2024-03-08T04:01:25;45.47;;;34.58;;
24761;SDS011;12865;51.934;10.330;2024-03-08T04:04:10;44.22;;;34.97;;
24761;SDS011;12865;51.934;10.330;2024-03-08T04:06:57;47.20;;;34.80;;
24761;SDS011;12865;51.934;10.330;2024-03-08T04:09:43;44.42;;;33.85;;
24761;SDS011;12865;51.934;10.330;2024-03-08T04:12:29;42.72;;;34.20;;
24761;SDS011;12865;51.934;10.330;2024-03-08T04:15:15;47.50;;;35.17;;
24761;SDS011;12865;51.934;10.330;2024-03-08T04:18:00;42.97;;;34.47;;
24761;SDS011;12865;51.934;10.330;2024-03-08T04:20:47;43.88;;;34.38;;
24761;SDS011;12865;51.934;10.330;2024-03-08T04:23:33;44.58;;;34.40;;
24761;SDS011;12865;51.934;10.330;2024-03-08T04:26:22;43.08;;;33.55;;
24761;SDS011;12865;51.934;10.330;2024-03-08T04:29:08;40.58;;;33.58;;
24761;SDS011;12865;51.934;10.330;2024-03-08T04:31:54;44.30;;;33.60;;
24761;SDS011;12865;51.934;10.330;2024-03-08T04:34:39;43.85;;;33.92;;
24761;SDS011;12865;51.934;10.330;2024-03-08T04:37:25;46.00;;;34.42;;
24761;SDS011;12865;51.934;10.330;2024-03-08T04:40:11;45.20;;;35.65;;
24761;SDS011;12865;51.934;10.330;2024-03-08T04:42:57;46.45;;;37.50;;
24761;SDS011;12865;51.934;10.330;2024-03-08T04:45:44;49.47;;;38.10;;
24761;SDS011;12865;51.934;10.330;2024-03-08T04:48:30;45.80;;;37.60;;
24761;SDS011;12865;51.934;10.330;2024-03-08T04:51:15;45.80;;;36.15;;
24761;SDS011;12865;51.934;10.330;2024-03-08T04:54:01;48.75;;;36.05;;
24761;SDS011;12865;51.934;10.330;2024-03-08T04:56:47;39.53;;;33.90;;
24761;SDS011;12865;51.934;10.330;2024-03-08T04:59:33;42.78;;;35.03;;
24761;SDS011;12865;51.934;10.330;2024-03-08T05:02:18;46.15;;;35.40;;
24761;SDS011;12865;51.934;10.330;2024-03-08T05:05:05;46.28;;;34.50;;
24761;SDS011;12865;51.934;10.330;2024-03-08T05:07:51;41.45;;;33.33;;
24761;SDS011;12865;51.934;10.330;2024-03-08T05:10:37;42.13;;;34.90;;
24761;SDS011;12865;51.934;10.330;2024-03-08T05:13:23;47.83;;;37.13;;
24761;SDS011;12865;51.934;10.330;2024-03-08T05:16:08;42.30;;;34.83;;
24761;SDS011;12865;51.934;10.330;2024-03-08T05:18:54;43.80;;;34.55;;
24761;SDS011;12865;51.934;10.330;2024-03-08T05:21:40;46.95;;;36.17;;
24761;SDS011;12865;51.934;10.330;2024-03-08T05:24:25;46.00;;;36.40;;
24761;SDS011;12865;51.934;10.330;2024-03-08T05:27:11;47.67;;;35.50;;
24761;SDS011;12865;51.934;10.330;2024-03-08T05:29:58;42.17;;;32.95;;
24761;SDS011;12865;51.934;10.330;2024-03-08T05:32:43;43.28;;;33.55;;
24761;SDS011;12865;51.934;10.330;2024-03-08T05:35:30;42.50;;;32.97;;
24761;SDS011;12865;51.934;10.330;2024-03-08T05:38:15;44.88;;;35.03;;
24761;SDS011;12865;51.934;10.330;2024-03-08T05:41:01;44.38;;;34.42;;
24761;SDS011;12865;51.934;10.330;2024-03-08T05:43:47;47.60;;;36.28;;
24761;SDS011;12865;51.934;10.330;2024-03-08T05:46:33;46.03;;;36.72;;
24761;SDS011;12865;51.934;10.330;2024-03-08T05:49:20;48.25;;;37.95;;
24761;SDS011;12865;51.934;10.330;2024-03-08T05:52:06;48.17;;;36.20;;
24761;SDS011;12865;51.934;10.330;2024-03-08T05:54:52;48.47;;;37.17;;
24761;SDS011;12865;51.934;10.330;2024-03-08T05:57:38;48.08;;;35.63;;
24761;SDS011;12865;51.934;10.330;2024-03-08T06:00:25;50.83;;;37.85;;
24761;SDS011;12865;51.934;10.330;2024-03-08T06:03:11;50.05;;;37.40;;
24761;SDS011;12865;51.934;10.330;2024-03-08T06:05:57;51.67;;;39.90;;
24761;SDS011;12865;51.934;10.330;2024-03-08T06:08:43;47.80;;;38.42;;
24761;SDS011;12865;51.934;10.330;2024-03-08T06:11:29;53.17;;;41.35;;
24761;SDS011;12865;51.934;10.330;2024-03-08T06:14:17;54.92;;;41.83;;
24761;SDS011;12865;51.934;10.330;2024-03-08T06:17:04;52.22;;;38.40;;
24761;SDS011;12865;51.934;10.330;2024-03-08T06:19:52;52.72;;;40.85;;
24761;SDS011;12865;51.934;10.330;2024-03-08T06:22:39;51.33;;;40.05;;
24761;SDS011;12865;51.934;10.330;2024-03-08T06:25:29;51.03;;;38.83;;
24761;SDS011;12865;51.934;10.330;2024-03-08T06:28:15;50.78;;;39.92;;
24761;SDS011;12865;51.934;10.330;2024-03-08T06:31:02;56.05;;;40.15;;
24761;SDS011;12865;51.934;10.330;2024-03-08T06:33:48;55.70;;;41.65;;
24761;SDS011;12865;51.934;10.330;2024-03-08T06:36:39;54.15;;;41.40;;
24761;SDS011;12865;51.934;10.330;2024-03-08T06:39:25;56.05;;;40.92;;
24761;SDS011;12865;51.934;10.330;2024-03-08T06:42:10;51.60;;;41.08;;
24761;SDS011;12865;51.934;10.330;2024-03-08T06:44:57;56.33;;;42.53;;
24761;SDS011;12865;51.934;10.330;2024-03-08T06:47:49;56.22;;;42.75;;
24761;SDS011;12865;51.934;10.330;2024-03-08T06:50:35;56.78;;;41.50;;
24761;SDS011;12865;51.934;10.330;2024-03-08T06:53:21;60.47;;;42.65;;
24761;SDS011;12865;51.934;10.330;2024-03-08T06:56:07;57.50;;;41.80;;
24761;SDS011;12865;51.934;10.330;2024-03-08T06:58:53;56.60;;;41.30;;
24761;SDS011;12865;51.934;10.330;2024-03-08T07:01:40;57.97;;;42.47;;
24761;SDS011;12865;51.934;10.330;2024-03-08T07:04:26;58.80;;;43.53;;
24761;SDS011;12865;51.934;10.330;2024-03-08T07:07:14;56.03;;;42.38;;
24761;SDS011;12865;51.934;10.330;2024-03-08T07:10:00;60.00;;;43.42;;
24761;SDS011;12865;51.934;10.330;2024-03-08T07:12:46;53.92;;;42.03;;
24761;SDS011;12865;51.934;10.330;2024-03-08T07:15:32;55.78;;;40.25;;
24761;SDS011;12865;51.934;10.330;2024-03-08T07:18:18;60.53;;;43.67;;
24761;SDS011;12865;51.934;10.330;2024-03-08T07:21:03;54.83;;;42.55;;
24761;SDS011;12865;51.934;10.330;2024-03-08T07:23:49;52.67;;;41.65;;
24761;SDS011;12865;51.934;10.330;2024-03-08T07:26:46;57.65;;;44.72;;
24761;SDS011;12865;51.934;10.330;2024-03-08T07:29:35;55.72;;;42.75;;
24761;SDS011;12865;51.934;10.330;2024-03-08T07:32:20;52.20;;;41.08;;
24761;SDS011;12865;51.934;10.330;2024-03-08T07:35:06;53.30;;;39.35;;
24761;SDS011;12865;51.934;10.330;2024-03-08T07:37:52;53.95;;;38.85;;
24761;SDS011;12865;51.934;10.330;2024-03-08T07:40:41;54.22;;;39.88;;
24761;SDS011;12865;51.934;10.330;2024-03-08T07:43:29;53.97;;;40.40;;
24761;SDS011;12865;51.934;10.330;2024-03-08T07:46:15;52.45;;;39.50;;
24761;SDS011;12865;51.934;10.330;2024-03-08T07:49:03;54.65;;;39.75;;
24761;SDS011;12865;51.934;10.330;2024-03-08T07:51:49;51.85;;;38.90;;
24761;SDS011;12865;51.934;10.330;2024-03-08T07:54:35;51.05;;;38.92;;
24761;SDS011;12865;51.934;10.330;2024-03-08T07:57:21;56.55;;;39.15;;
24761;SDS011;12865;51.934;10.330;2024-03-08T08:00:06;56.40;;;39.22;;
24761;SDS011;12865;51.934;10.330;2024-03-08T08:02:53;53.28;;;39.38;;
24761;SDS011;12865;51.934;10.330;2024-03-08T08:05:39;51.72;;;37.85;;
24761;SDS011;12865;51.934;10.330;2024-03-08T08:08:25;53.35;;;37.42;;
24761;SDS011;12865;51.934;10.330;2024-03-08T08:11:11;52.10;;;38.60;;
24761;SDS011;12865;51.934;10.330;2024-03-08T08:13:57;58.25;;;36.17;;
24761;SDS011;12865;51.934;10.330;2024-03-08T08:16:44;52.70;;;35.08;;
24761;SDS011;12865;51.934;10.330;2024-03-08T08:19:31;50.60;;;35.00;;
24761;SDS011;12865;51.934;10.330;2024-03-08T08:22:17;50.35;;;32.95;;
24761;SDS011;12865;51.934;10.330;2024-03-08T08:25:03;51.92;;;35.05;;
24761;SDS011;12865;51.934;10.330;2024-03-08T08:27:49;54.35;;;35.45;;
24761;SDS011;12865;51.934;10.330;2024-03-08T08:30:35;50.88;;;34.60;;
24761;SDS011;12865;51.934;10.330;2024-03-08T08:33:20;49.33;;;33.95;;
24761;SDS011;12865;51.934;10.330;2024-03-08T08:36:06;45.53;;;32.33;;
24761;SDS011;12865;51.934;10.330;2024-03-08T08:38:52;51.38;;;33.83;;
24761;SDS011;12865;51.934;10.330;2024-03-08T08:41:41;50.10;;;35.28;;
24761;SDS011;12865;51.934;10.330;2024-03-08T08:44:27;48.85;;;34.30;;
24761;SDS011;12865;51.934;10.330;2024-03-08T08:47:13;47.55;;;33.80;;
24761;SDS011;12865;51.934;10.330;2024-03-08T08:49:58;45.78;;;32.85;;
24761;SDS011;12865;51.934;10.330;2024-03-08T08:52:44;47.95;;;32.50;;
24761;SDS011;12865;51.934;10.330;2024-03-08T08:55:30;45.28;;;31.98;;
24761;SDS011;12865;51.934;10.330;2024-03-08T08:58:16;49.75;;;32.22;;
24761;SDS011;12865;51.934;10.330;2024-03-08T09:01:02;47.78;;;32.50;;
24761;SDS011;12865;51.934;10.330;2024-03-08T09:03:47;46.63;;;33.03;;
24761;SDS011;12865;51.934;10.330;2024-03-08T09:06:33;48.35;;;31.98;;
24761;SDS011;12865;51.934;10.330;2024-03-08T09:09:19;45.42;;;31.10;;
24761;SDS011;12865;51.934;10.330;2024-03-08T09:12:05;51.67;;;30.67;;
24761;SDS011;12865;51.934;10.330;2024-03-08T09:14:50;48.70;;;31.77;;
24761;SDS011;12865;51.934;10.330;2024-03-08T09:17:37;42.35;;;30.00;;
24761;SDS011;12865;51.934;10.330;2024-03-08T09:20:25;47.20;;;30.10;;
24761;SDS011;12865;51.934;10.330;2024-03-08T09:23:10;45.45;;;30.45;;
24761;SDS011;12865;51.934;10.330;2024-03-08T09:25:56;43.00;;;31.05;;
24761;SDS011;12865;51.934;10.330;2024-03-08T09:28:45;42.42;;;30.77;;
24761;SDS011;12865;51.934;10.330;2024-03-08T09:31:31;42.75;;;30.13;;
24761;SDS011;12865;51.934;10.330;2024-03-08T09:34:16;38.55;;;29.40;;
24761;SDS011;12865;51.934;10.330;2024-03-08T09:37:04;44.38;;;30.38;;
24761;SDS011;12865;51.934;10.330;2024-03-08T09:42:17;43.97;;;30.27;;
24761;SDS011;12865;51.934;10.330;2024-03-08T09:45:05;42.70;;;29.33;;
24761;SDS011;12865;51.934;10.330;2024-03-08T09:47:56;41.15;;;28.33;;
24761;SDS011;12865;51.934;10.330;2024-03-08T09:50:41;44.08;;;29.50;;
24761;SDS011;12865;51.934;10.330;2024-03-08T09:53:28;39.95;;;28.83;;
24761;SDS011;12865;51.934;10.330;2024-03-08T09:56:14;39.40;;;28.50;;
24761;SDS011;12865;51.934;10.330;2024-03-08T09:59:00;41.90;;;27.65;;
24761;SDS011;12865;51.934;10.330;2024-03-08T10:01:51;39.55;;;28.33;;
24761;SDS011;12865;51.934;10.330;2024-03-08T10:04:44;38.63;;;28.30;;
24761;SDS011;12865;51.934;10.330;2024-03-08T10:07:33;40.47;;;29.05;;
24761;SDS011;12865;51.934;10.330;2024-03-08T10:10:20;36.30;;;27.75;;
24761;SDS011;12865;51.934;10.330;2024-03-08T10:13:07;40.08;;;29.15;;
24761;SDS011;12865;51.934;10.330;2024-03-08T10:15:53;39.00;;;27.90;;
24761;SDS011;12865;51.934;10.330;2024-03-08T10:18:39;38.50;;;28.15;;
24761;SDS011;12865;51.934;10.330;2024-03-08T10:21:26;37.05;;;27.88;;
24761;SDS011;12865;51.934;10.330;2024-03-08T10:24:12;34.30;;;26.38;;
24761;SDS011;12865;51.934;10.330;2024-03-08T10:27:01;35.53;;;26.30;;
24761;SDS011;12865;51.934;10.330;2024-03-08T10:29:49;37.42;;;27.50;;
24761;SDS011;12865;51.934;10.330;2024-03-08T10:32:37;36.90;;;26.92;;
24761;SDS011;12865;51.934;10.330;2024-03-08T10:35:23;33.65;;;25.15;;
24761;SDS011;12865;51.934;10.330;2024-03-08T10:38:09;41.88;;;27.73;;
24761;SDS011;12865;51.934;10.330;2024-03-08T10:41:01;37.75;;;27.13;;
24761;SDS011;12865;51.934;10.330;2024-03-08T10:52:36;40.00;;;27.70;;
24761;SDS011;12865;51.934;10.330;2024-03-08T10:55:22;36.65;;;26.98;;
24761;SDS011;12865;51.934;10.330;2024-03-08T10:58:09;39.90;;;28.25;;
24761;SDS011;12865;51.934;10.330;2024-03-08T11:00:56;38.60;;;28.58;;
24761;SDS011;12865;51.934;10.330;2024-03-08T11:03:45;40.67;;;30.35;;
24761;SDS011;12865;51.934;10.330;2024-03-08T11:09:32;39.88;;;29.95;;
24761;SDS011;12865;51.934;10.330;2024-03-08T11:15:20;43.40;;;29.23;;
24761;SDS011;12865;51.934;10.330;2024-03-08T11:18:06;39.05;;;28.30;;
24761;SDS011;12865;51.934;10.330;2024-03-08T11:20:55;41.10;;;28.73;;
24761;SDS011;12865;51.934;10.330;2024-03-08T11:23:42;43.45;;;29.27;;
24761;SDS011;12865;51.934;10.330;2024-03-08T11:26:29;38.17;;;28.85;;
24761;SDS011;12865;51.934;10.330;2024-03-08T11:35:06;40.13;;;27.95;;
24761;SDS011;12865;51.934;10.330;2024-03-08T11:38:03;37.38;;;27.02;;
24761;SDS011;12865;51.934;10.330;2024-03-08T11:40:50;38.80;;;27.80;;
24761;SDS011;12865;51.934;10.330;2024-03-08T11:43:35;39.88;;;25.65;;
24761;SDS011;12865;51.934;10.330;2024-03-08T11:46:24;38.22;;;27.02;;
24761;SDS011;12865;51.934;10.330;2024-03-08T11:49:10;38.87;;;27.53;;
24761;SDS011;12865;51.934;10.330;2024-03-08T11:51:57;38.55;;;28.30;;
24761;SDS011;12865;51.934;10.330;2024-03-08T11:54:43;40.70;;;27.30;;
24761;SDS011;12865;51.934;10.330;2024-03-08T11:57:36;37.80;;;27.00;;
24761;SDS011;12865;51.934;10.330;2024-03-08T12:00:22;36.92;;;27.65;;
24761;SDS011;12865;51.934;10.330;2024-03-08T12:03:11;36.67;;;26.40;;
24761;SDS011;12865;51.934;10.330;2024-03-08T12:05:57;38.28;;;28.00;;
24761;SDS011;12865;51.934;10.330;2024-03-08T12:08:47;39.78;;;27.15;;
24761;SDS011;12865;51.934;10.330;2024-03-08T12:11:34;41.40;;;29.00;;
24761;SDS011;12865;51.934;10.330;2024-03-08T12:14:21;39.28;;;27.90;;
24761;SDS011;12865;51.934;10.330;2024-03-08T12:17:07;36.88;;;25.98;;
24761;SDS011;12865;51.934;10.330;2024-03-08T12:19:55;37.33;;;27.02;;
24761;SDS011;12865;51.934;10.330;2024-03-08T12:22:44;37.78;;;28.00;;
24761;SDS011;12865;51.934;10.330;2024-03-08T12:25:31;38.95;;;28.23;;
24761;SDS011;12865;51.934;10.330;2024-03-08T12:28:20;40.90;;;28.52;;
24761;SDS011;12865;51.934;10.330;2024-03-08T12:31:07;38.83;;;28.35;;
24761;SDS011;12865;51.934;10.330;2024-03-08T12:33:56;40.17;;;28.40;;
24761;SDS011;12865;51.934;10.330;2024-03-08T12:36:47;38.13;;;28.48;;
24761;SDS011;12865;51.934;10.330;2024-03-08T12:39:35;37.08;;;29.27;;
24761;SDS011;12865;51.934;10.330;2024-03-08T12:42:21;37.08;;;27.85;;
24761;SDS011;12865;51.934;10.330;2024-03-08T12:45:08;43.20;;;28.80;;
24761;SDS011;12865;51.934;10.330;2024-03-08T12:47:55;39.28;;;28.30;;
24761;SDS011;12865;51.934;10.330;2024-03-08T12:50:41;36.67;;;27.17;;
24761;SDS011;12865;51.934;10.330;2024-03-08T12:53:33;37.90;;;28.35;;
24761;SDS011;12865;51.934;10.330;2024-03-08T12:56:31;41.33;;;30.40;;
24761;SDS011;12865;51.934;10.330;2024-03-08T12:59:18;40.80;;;28.88;;
24761;SDS011;12865;51.934;10.330;2024-03-08T13:02:04;39.50;;;29.10;;
24761;SDS011;12865;51.934;10.330;2024-03-08T13:04:56;37.53;;;28.23;;
24761;SDS011;12865;51.934;10.330;2024-03-08T13:07:45;39.97;;;28.38;;
24761;SDS011;12865;51.934;10.330;2024-03-08T13:10:31;41.20;;;29.38;;
24761;SDS011;12865;51.934;10.330;2024-03-08T13:13:17;37.60;;;28.05;;
24761;SDS011;12865;51.934;10.330;2024-03-08T13:16:03;38.53;;;29.15;;
24761;SDS011;12865;51.934;10.330;2024-03-08T13:18:49;43.60;;;28.50;;
24761;SDS011;12865;51.934;10.330;2024-03-08T13:21:34;36.50;;;27.92;;
24761;SDS011;12865;51.934;10.330;2024-03-08T13:24:20;36.80;;;27.85;;
24761;SDS011;12865;51.934;10.330;2024-03-08T13:27:07;39.63;;;27.23;;
24761;SDS011;12865;51.934;10.330;2024-03-08T13:30:04;38.35;;;28.33;;
24761;SDS011;12865;51.934;10.330;2024-03-08T13:32:52;41.80;;;28.63;;
24761;SDS011;12865;51.934;10.330;2024-03-08T13:35:39;39.63;;;28.35;;
24761;SDS011;12865;51.934;10.330;2024-03-08T13:38:26;37.40;;;26.30;;
24761;SDS011;12865;51.934;10.330;2024-03-08T13:41:12;36.67;;;27.67;;
24761;SDS011;12865;51.934;10.330;2024-03-08T13:43:59;39.45;;;27.45;;
24761;SDS011;12865;51.934;10.330;2024-03-08T13:46:46;35.90;;;28.00;;
24761;SDS011;12865;51.934;10.330;2024-03-08T13:49:32;39.10;;;26.23;;
24761;SDS011;12865;51.934;10.330;2024-03-08T13:52:18;39.88;;;28.08;;
24761;SDS011;12865;51.934;10.330;2024-03-08T13:55:07;37.13;;;26.17;;
24761;SDS011;12865;51.934;10.330;2024-03-08T13:57:56;37.30;;;27.77;;
24761;SDS011;12865;51.934;10.330;2024-03-08T14:00:42;36.50;;;26.55;;
24761;SDS011;12865;51.934;10.330;2024-03-08T14:03:31;36.47;;;25.60;;
24761;SDS011;12865;51.934;10.330;2024-03-08T14:06:18;40.90;;;25.83;;
24761;SDS011;12865;51.934;10.330;2024-03-08T14:09:03;34.60;;;24.65;;
24761;SDS011;12865;51.934;10.330;2024-03-08T14:11:49;35.25;;;26.42;;
24761;SDS011;12865;51.934;10.330;2024-03-08T14:14:35;34.72;;;25.73;;
24761;SDS011;12865;51.934;10.330;2024-03-08T14:17:21;35.72;;;26.10;;
24761;SDS011;12865;51.934;10.330;2024-03-08T14:20:06;33.60;;;25.30;;
24761;SDS011;12865;51.934;10.330;2024-03-08T14:22:54;37.35;;;26.58;;
24761;SDS011;12865;51.934;10.330;2024-03-08T14:25:40;36.25;;;27.00;;
24761;SDS011;12865;51.934;10.330;2024-03-08T14:28:26;39.40;;;26.33;;
24761;SDS011;12865;51.934;10.330;2024-03-08T14:31:12;33.22;;;24.75;;
24761;SDS011;12865;51.934;10.330;2024-03-08T14:33:58;37.60;;;26.05;;
24761;SDS011;12865;51.934;10.330;2024-03-08T14:36:44;34.65;;;23.90;;
24761;SDS011;12865;51.934;10.330;2024-03-08T14:39:29;35.38;;;25.65;;
24761;SDS011;12865;51.934;10.330;2024-03-08T14:42:15;35.85;;;26.20;;
24761;SDS011;12865;51.934;10.330;2024-03-08T14:45:01;33.75;;;24.90;;
24761;SDS011;12865;51.934;10.330;2024-03-08T14:47:47;34.90;;;26.13;;
24761;SDS011;12865;51.934;10.330;2024-03-08T14:50:35;33.13;;;26.05;;
24761;SDS011;12865;51.934;10.330;2024-03-08T14:53:22;36.42;;;26.48;;
24761;SDS011;12865;51.934;10.330;2024-03-08T14:56:07;33.75;;;26.08;;
24761;SDS011;12865;51.934;10.330;2024-03-08T14:58:54;38.05;;;27.38;;
24761;SDS011;12865;51.934;10.330;2024-03-08T15:01:40;34.50;;;26.65;;
24761;SDS011;12865;51.934;10.330;2024-03-08T15:04:28;36.40;;;27.42;;
24761;SDS011;12865;51.934;10.330;2024-03-08T15:07:14;40.78;;;27.70;;
24761;SDS011;12865;51.934;10.330;2024-03-08T15:10:00;39.08;;;27.42;;
24761;SDS011;12865;51.934;10.330;2024-03-08T15:12:46;41.92;;;28.90;;
24761;SDS011;12865;51.934;10.330;2024-03-08T15:15:32;40.80;;;29.27;;
24761;SDS011;12865;51.934;10.330;2024-03-08T15:18:17;40.70;;;28.65;;
24761;SDS011;12865;51.934;10.330;2024-03-08T15:21:04;36.38;;;26.58;;
24761;SDS011;12865;51.934;10.330;2024-03-08T15:23:53;39.45;;;27.10;;
24761;SDS011;12865;51.934;10.330;2024-03-08T15:26:39;36.97;;;27.58;;
24761;SDS011;12865;51.934;10.330;2024-03-08T15:29:26;36.55;;;27.55;;
24761;SDS011;12865;51.934;10.330;2024-03-08T15:32:12;36.75;;;27.13;;
24761;SDS011;12865;51.934;10.330;2024-03-08T15:35:03;36.10;;;25.83;;
24761;SDS011;12865;51.934;10.330;2024-03-08T15:37:49;39.50;;;28.13;;
24761;SDS011;12865;51.934;10.330;2024-03-08T15:40:35;35.20;;;26.20;;
24761;SDS011;12865;51.934;10.330;2024-03-08T15:43:21;42.22;;;28.52;;
24761;SDS011;12865;51.934;10.330;2024-03-08T15:46:07;37.65;;;27.27;;
24761;SDS011;12865;51.934;10.330;2024-03-08T15:48:54;41.60;;;27.35;;
24761;SDS011;12865;51.934;10.330;2024-03-08T15:51:40;34.30;;;26.38;;
24761;SDS011;12865;51.934;10.330;2024-03-08T15:54:26;37.35;;;26.60;;
24761;SDS011;12865;51.934;10.330;2024-03-08T15:57:12;37.38;;;27.08;;
24761;SDS011;12865;51.934;10.330;2024-03-08T16:00:02;33.10;;;25.45;;
24761;SDS011;12865;51.934;10.330;2024-03-08T16:02:57;36.15;;;26.27;;
24761;SDS011;12865;51.934;10.330;2024-03-08T16:05:44;37.83;;;26.95;;
24761;SDS011;12865;51.934;10.330;2024-03-08T16:08:30;36.90;;;26.98;;
24761;SDS011;12865;51.934;10.330;2024-03-08T16:11:17;34.40;;;25.88;;
24761;SDS011;12865;51.934;10.330;2024-03-08T16:14:04;37.15;;;26.50;;
24761;SDS011;12865;51.934;10.330;2024-03-08T16:16:49;32.97;;;25.98;;
24761;SDS011;12865;51.934;10.330;2024-03-08T16:19:35;33.80;;;24.77;;
24761;SDS011;12865;51.934;10.330;2024-03-08T16:22:21;36.22;;;25.75;;
24761;SDS011;12865;51.934;10.330;2024-03-08T16:25:07;31.88;;;25.02;;